createdAt,value
2022-11-11T00:00:21.923Z,8.18
2022-11-11T00:01:21.933Z,8.18
2022-11-11T00:02:21.977Z,8.18
2022-11-11T00:03:25.103Z,8.18
2022-11-11T00:04:21.900Z,8.20
2022-11-11T00:05:21.895Z,8.18
2022-11-11T00:06:21.876Z,8.17
2022-11-11T00:07:21.867Z,8.17
2022-11-11T00:08:21.871Z,8.14
2022-11-11T00:09:21.830Z,8.15
2022-11-11T00:10:21.812Z,8.12
2022-11-11T00:11:21.827Z,8.10
2022-11-11T00:12:26.345Z,8.08
2022-11-11T00:13:23.297Z,8.08
2022-11-11T00:14:21.783Z,8.10
2022-11-11T00:15:21.769Z,8.07
2022-11-11T00:16:21.770Z,8.07
2022-11-11T00:17:21.744Z,8.04
2022-11-11T00:18:22.089Z,8.03
2022-11-11T00:19:21.716Z,8.02
2022-11-11T00:20:24.335Z,8.00
2022-11-11T00:21:21.709Z,8.02
2022-11-11T00:22:21.702Z,8.00
2022-11-11T00:23:21.673Z,8.02
2022-11-11T00:24:21.674Z,8.02
2022-11-11T00:25:21.721Z,8.00
2022-11-11T00:27:22.663Z,7.99
2022-11-11T00:28:22.026Z,7.97
2022-11-11T00:29:21.642Z,7.97
2022-11-11T00:30:21.652Z,7.97
2022-11-11T00:31:21.620Z,7.94
2022-11-11T00:32:21.625Z,7.93
2022-11-11T00:33:21.652Z,7.92
2022-11-11T00:34:22.535Z,7.92
2022-11-11T00:35:21.535Z,7.90
2022-11-11T00:36:21.543Z,7.90
2022-11-11T00:37:21.516Z,7.90
2022-11-11T00:38:21.833Z,7.90
2022-11-11T00:39:21.526Z,7.89
2022-11-11T00:40:21.557Z,7.90
2022-11-11T00:41:21.562Z,7.89
2022-11-11T00:42:21.466Z,7.90
2022-11-11T00:43:21.507Z,7.90
2022-11-11T00:44:21.537Z,7.90
2022-11-11T00:45:21.451Z,7.90
2022-11-11T00:46:21.523Z,7.90
2022-11-11T00:47:21.411Z,7.90
2022-11-11T00:48:21.791Z,7.89
2022-11-11T00:49:21.383Z,7.87
2022-11-11T00:50:21.419Z,7.85
2022-11-11T00:51:21.456Z,7.84
2022-11-11T00:52:21.401Z,7.82
2022-11-11T00:53:26.252Z,7.82
2022-11-11T00:54:22.402Z,7.81
2022-11-11T00:55:21.329Z,7.79
2022-11-11T00:56:21.316Z,7.79
2022-11-11T00:57:21.356Z,7.78
2022-11-11T00:58:21.798Z,7.79
2022-11-11T00:59:21.309Z,7.79
2022-11-11T01:00:21.329Z,7.78
2022-11-11T01:01:21.295Z,7.78
2022-11-11T01:02:21.284Z,7.77
2022-11-11T01:03:21.241Z,7.78
2022-11-11T01:04:21.227Z,7.75
2022-11-11T01:05:21.330Z,7.74
2022-11-11T01:06:21.252Z,7.72
2022-11-11T01:07:21.410Z,7.69
2022-11-11T01:08:21.521Z,7.66
2022-11-11T01:09:21.163Z,7.63
2022-11-11T01:10:21.145Z,7.62
2022-11-11T01:11:21.178Z,7.59
2022-11-11T01:12:21.157Z,7.59
2022-11-11T01:13:21.237Z,7.56
2022-11-11T01:14:21.104Z,7.53
2022-11-11T01:15:21.139Z,7.52
2022-11-11T01:16:21.078Z,7.49
2022-11-11T01:17:21.125Z,7.47
2022-11-11T01:18:21.509Z,7.44
2022-11-11T01:19:21.215Z,7.41
2022-11-11T01:20:21.157Z,7.40
2022-11-11T01:21:21.024Z,7.41
2022-11-11T01:22:21.073Z,7.40
2022-11-11T01:23:21.064Z,7.41
2022-11-11T01:24:21.033Z,7.40
2022-11-11T01:25:21.054Z,7.37
2022-11-11T01:26:24.661Z,7.37
2022-11-11T01:27:22.027Z,7.37
2022-11-11T01:28:21.320Z,7.35
2022-11-11T01:29:20.997Z,7.37
2022-11-11T01:30:21.054Z,7.35
2022-11-11T01:31:20.977Z,7.35
2022-11-11T01:32:20.967Z,7.35
2022-11-11T01:33:20.939Z,7.35
2022-11-11T01:34:20.954Z,7.34
2022-11-11T01:35:20.906Z,7.31
2022-11-11T01:36:20.858Z,7.29
2022-11-11T01:37:20.894Z,7.26
2022-11-11T01:38:21.160Z,7.26
2022-11-11T01:39:20.886Z,7.23
2022-11-11T01:40:20.852Z,7.23
2022-11-11T01:41:20.827Z,7.20
2022-11-11T01:42:20.832Z,7.19
2022-11-11T01:43:20.940Z,7.16
2022-11-11T01:44:20.842Z,7.16
2022-11-11T01:45:20.857Z,7.15
2022-11-11T01:46:20.821Z,7.13
2022-11-11T01:47:20.827Z,7.13
2022-11-11T01:48:26.588Z,7.08
2022-11-11T01:49:21.808Z,7.07
2022-11-11T01:50:20.812Z,7.04
2022-11-11T01:51:20.814Z,7.01
2022-11-11T01:52:20.700Z,7.02
2022-11-11T01:53:21.139Z,7.04
2022-11-11T01:54:20.756Z,7.01
2022-11-11T01:55:20.764Z,7.01
2022-11-11T01:56:20.767Z,7.01
2022-11-11T01:57:20.734Z,6.98
2022-11-11T01:58:20.761Z,7.01
2022-11-11T01:59:20.609Z,6.99
2022-11-11T02:00:20.746Z,6.99
2022-11-11T02:01:20.799Z,6.98
2022-11-11T02:02:20.696Z,6.97
2022-11-11T02:03:20.755Z,6.97
2022-11-11T02:04:20.539Z,6.98
2022-11-11T02:05:20.692Z,6.98
2022-11-11T02:06:20.522Z,6.98
2022-11-11T02:07:20.558Z,6.97
2022-11-11T02:08:20.588Z,6.97
2022-11-11T02:09:20.634Z,6.98
2022-11-11T02:10:20.564Z,6.97
2022-11-11T02:11:20.526Z,6.97
2022-11-11T02:12:20.455Z,6.97
2022-11-11T02:13:20.581Z,7.01
2022-11-11T02:14:20.571Z,7.01
2022-11-11T02:15:20.560Z,7.02
2022-11-11T02:16:20.405Z,7.04
2022-11-11T02:17:21.499Z,7.07
2022-11-11T02:18:20.490Z,7.08
2022-11-11T02:19:20.414Z,7.08
2022-11-11T02:20:20.377Z,7.09
2022-11-11T02:21:20.357Z,7.09
2022-11-11T02:22:20.477Z,7.12
2022-11-11T02:23:20.565Z,7.15
2022-11-11T02:24:20.371Z,7.12
2022-11-11T02:25:20.439Z,7.13
2022-11-11T02:26:20.327Z,7.12
2022-11-11T02:27:20.362Z,7.12
2022-11-11T02:28:20.427Z,7.09
2022-11-11T02:29:20.295Z,7.08
2022-11-11T02:30:20.322Z,7.09
2022-11-11T02:31:20.408Z,7.08
2022-11-11T02:32:20.276Z,7.08
2022-11-11T02:33:20.520Z,7.08
2022-11-11T02:34:20.249Z,7.08
2022-11-11T02:35:20.208Z,7.08
2022-11-11T02:36:20.324Z,7.07
2022-11-11T02:37:20.322Z,7.07
2022-11-11T02:38:20.175Z,7.07
2022-11-11T02:39:23.728Z,7.05
2022-11-11T02:40:21.253Z,7.05
2022-11-11T02:41:20.144Z,7.02
2022-11-11T02:42:20.180Z,7.01
2022-11-11T02:43:20.315Z,6.99
2022-11-11T02:44:20.215Z,6.98
2022-11-11T02:45:20.183Z,6.98
2022-11-11T02:46:20.116Z,6.97
2022-11-11T02:47:20.064Z,6.98
2022-11-11T02:48:20.269Z,6.97
2022-11-11T02:49:20.081Z,6.94
2022-11-11T02:50:20.197Z,6.94
2022-11-11T02:51:20.206Z,6.94
2022-11-11T02:52:20.082Z,6.91
2022-11-11T02:53:20.031Z,6.91
2022-11-11T02:54:19.999Z,6.90
2022-11-11T02:55:19.999Z,6.89
2022-11-11T02:56:19.962Z,6.86
2022-11-11T02:57:20.107Z,6.81
2022-11-11T02:58:20.143Z,6.79
2022-11-11T02:59:20.122Z,6.76
2022-11-11T03:00:19.957Z,6.73
2022-11-11T03:01:20.223Z,6.73
2022-11-11T03:02:20.086Z,6.71
2022-11-11T03:03:19.957Z,6.69
2022-11-11T03:04:20.047Z,6.68
2022-11-11T03:05:20.135Z,6.65
2022-11-11T03:06:19.931Z,6.63
2022-11-11T03:07:20.072Z,6.61
2022-11-11T03:08:20.086Z,6.63
2022-11-11T03:09:19.892Z,6.63
2022-11-11T03:10:19.828Z,6.62
2022-11-11T03:11:19.985Z,6.62
2022-11-11T03:12:19.803Z,6.61
2022-11-11T03:13:20.044Z,6.62
2022-11-11T03:14:19.964Z,6.61
2022-11-11T03:15:19.868Z,6.62
2022-11-11T03:16:19.809Z,6.61
2022-11-11T03:17:19.880Z,6.61
2022-11-11T03:18:19.853Z,6.62
2022-11-11T03:19:19.808Z,6.62
2022-11-11T03:20:19.688Z,6.65
2022-11-11T03:22:24.155Z,6.68
2022-11-11T03:23:20.815Z,6.71
2022-11-11T03:24:19.649Z,6.73
2022-11-11T03:25:19.653Z,6.77
2022-11-11T03:26:19.630Z,6.80
2022-11-11T03:27:19.638Z,6.81
2022-11-11T03:28:19.610Z,6.83
2022-11-11T03:29:19.591Z,6.84
2022-11-11T03:30:19.608Z,6.86
2022-11-11T03:31:19.584Z,6.87
2022-11-11T03:32:19.592Z,6.89
2022-11-11T03:33:19.559Z,6.89
2022-11-11T03:34:19.541Z,6.91
2022-11-11T03:35:19.553Z,6.94
2022-11-11T03:36:19.522Z,6.97
2022-11-11T03:37:19.505Z,6.99
2022-11-11T03:38:19.483Z,7.02
2022-11-11T03:39:19.491Z,7.07
2022-11-11T03:40:19.484Z,7.13
2022-11-11T03:41:19.477Z,7.17
2022-11-11T03:42:19.454Z,7.19
2022-11-11T03:43:19.436Z,7.23
2022-11-11T03:44:19.427Z,7.23
2022-11-11T03:45:19.433Z,7.24
2022-11-11T03:46:19.406Z,7.24
2022-11-11T03:47:19.386Z,7.26
2022-11-11T03:48:19.404Z,7.27
2022-11-11T03:49:19.382Z,7.27
2022-11-11T03:50:19.368Z,7.27
2022-11-11T03:51:19.348Z,7.27
2022-11-11T03:52:19.340Z,7.32
2022-11-11T03:53:19.330Z,7.32
2022-11-11T03:54:19.332Z,7.34
2022-11-11T03:55:19.309Z,7.35
2022-11-11T03:56:20.258Z,7.37
2022-11-11T03:57:19.311Z,7.35
2022-11-11T03:58:19.279Z,7.37
2022-11-11T03:59:19.279Z,7.38
2022-11-11T04:00:19.250Z,7.40
2022-11-11T04:01:19.240Z,7.42
2022-11-11T04:02:19.246Z,7.44
2022-11-11T04:03:19.210Z,7.45
2022-11-11T04:04:19.201Z,7.47
2022-11-11T04:05:19.193Z,7.47
2022-11-11T04:06:19.182Z,7.49
2022-11-11T04:07:19.213Z,7.50
2022-11-11T04:08:19.171Z,7.52
2022-11-11T04:09:19.137Z,7.55
2022-11-11T04:10:19.153Z,7.55
2022-11-11T04:11:19.125Z,7.55
2022-11-11T04:12:19.122Z,7.55
2022-11-11T04:13:19.113Z,7.55
2022-11-11T04:14:19.117Z,7.58
2022-11-11T04:15:19.085Z,7.59
2022-11-11T04:16:19.067Z,7.58
2022-11-11T04:17:19.052Z,7.59
2022-11-11T04:18:19.044Z,7.59
2022-11-11T04:19:19.044Z,7.60
2022-11-11T04:20:19.033Z,7.62
2022-11-11T04:21:19.015Z,7.63
2022-11-11T04:22:19.002Z,7.66
2022-11-11T04:23:18.984Z,7.67
2022-11-11T04:24:18.977Z,7.69
2022-11-11T04:25:18.990Z,7.72
2022-11-11T04:26:18.958Z,7.71
2022-11-11T04:27:18.955Z,7.74
2022-11-11T04:28:18.933Z,7.77
2022-11-11T04:29:18.931Z,7.78
2022-11-11T04:30:18.919Z,7.78
2022-11-11T04:31:18.919Z,7.78
2022-11-11T04:32:18.889Z,7.81
2022-11-11T04:33:18.880Z,7.79
2022-11-11T04:34:18.859Z,7.79
2022-11-11T04:35:18.849Z,7.82
2022-11-11T04:36:18.852Z,7.85
2022-11-11T04:37:18.826Z,7.85
2022-11-11T04:38:18.830Z,7.85
2022-11-11T04:39:18.801Z,7.85
2022-11-11T04:40:18.796Z,7.89
2022-11-11T04:41:18.804Z,7.89
2022-11-11T04:42:18.777Z,7.90
2022-11-11T04:43:18.764Z,7.89
2022-11-11T04:44:18.747Z,7.90
2022-11-11T04:45:18.760Z,7.90
2022-11-11T04:46:18.722Z,7.92
2022-11-11T04:47:19.670Z,7.92
2022-11-11T04:48:18.709Z,7.93
2022-11-11T04:49:18.696Z,7.93
2022-11-11T04:50:18.704Z,7.93
2022-11-11T04:51:18.680Z,7.92
2022-11-11T04:52:18.661Z,7.94
2022-11-11T04:53:18.658Z,7.96
2022-11-11T04:54:18.635Z,7.96
2022-11-11T04:55:21.872Z,7.99
2022-11-11T04:56:18.617Z,7.99
2022-11-11T04:57:18.604Z,7.99
2022-11-11T04:58:18.597Z,7.97
2022-11-11T04:59:18.579Z,7.96
2022-11-11T05:00:18.599Z,7.96
2022-11-11T05:01:18.605Z,7.97
2022-11-11T05:02:18.548Z,7.96
2022-11-11T05:03:18.621Z,7.99
2022-11-11T05:04:18.550Z,7.97
2022-11-11T05:05:18.531Z,7.99
2022-11-11T05:06:18.507Z,8.00
2022-11-11T05:07:18.514Z,8.00
2022-11-11T05:08:18.481Z,8.00
2022-11-11T05:09:18.494Z,8.00
2022-11-11T05:10:18.463Z,8.00
2022-11-11T05:11:18.469Z,8.00
2022-11-11T05:12:18.468Z,7.99
2022-11-11T05:13:23.605Z,8.02
2022-11-11T05:14:19.426Z,8.03
2022-11-11T05:15:18.410Z,8.02
2022-11-11T05:16:18.430Z,8.07
2022-11-11T05:17:18.388Z,8.07
2022-11-11T05:18:18.382Z,8.04
2022-11-11T05:19:18.371Z,8.04
2022-11-11T05:20:18.350Z,8.08
2022-11-11T05:21:18.356Z,8.08
2022-11-11T05:22:18.333Z,8.10
2022-11-11T05:23:18.321Z,8.08
2022-11-11T05:24:18.310Z,8.10
2022-11-11T05:25:18.291Z,8.10
2022-11-11T05:26:18.305Z,8.10
2022-11-11T05:27:18.265Z,8.08
2022-11-11T05:28:18.260Z,8.10
2022-11-11T05:29:18.245Z,8.07
2022-11-11T05:30:18.254Z,8.07
2022-11-11T05:31:18.245Z,8.08
2022-11-11T05:32:18.214Z,8.04
2022-11-11T05:33:18.204Z,8.04
2022-11-11T05:34:19.142Z,8.03
2022-11-11T05:35:18.197Z,8.02
2022-11-11T05:36:18.177Z,7.99
2022-11-11T05:37:18.421Z,7.99
2022-11-11T05:38:18.162Z,8.02
2022-11-11T05:39:18.153Z,8.00
2022-11-11T05:40:18.126Z,8.00
2022-11-11T05:41:18.138Z,7.97
2022-11-11T05:42:18.110Z,7.97
2022-11-11T05:43:18.098Z,7.94
2022-11-11T05:44:18.111Z,7.97
2022-11-11T05:45:18.083Z,7.94
2022-11-11T05:46:18.074Z,7.94
2022-11-11T05:47:18.048Z,7.96
2022-11-11T05:48:18.048Z,7.93
2022-11-11T05:49:18.031Z,7.94
2022-11-11T05:50:18.042Z,7.93
2022-11-11T05:51:17.992Z,7.92
2022-11-11T05:52:18.971Z,7.92
2022-11-11T05:53:17.973Z,7.92
2022-11-11T05:54:17.973Z,7.92
2022-11-11T05:55:17.964Z,7.90
2022-11-11T05:56:17.972Z,7.89
2022-11-11T05:57:17.938Z,7.89
2022-11-11T05:58:17.922Z,7.87
2022-11-11T05:59:17.923Z,7.85
2022-11-11T06:00:17.900Z,7.84
2022-11-11T06:01:17.894Z,7.82
2022-11-11T06:02:17.881Z,7.82
2022-11-11T06:03:17.864Z,7.82
2022-11-11T06:04:18.615Z,7.82
2022-11-11T06:05:17.877Z,7.82
2022-11-11T06:06:17.853Z,7.82
2022-11-11T06:07:17.895Z,7.84
2022-11-11T06:08:17.846Z,7.85
2022-11-11T06:09:17.804Z,7.85
2022-11-11T06:10:17.804Z,7.87
2022-11-11T06:11:17.795Z,7.84
2022-11-11T06:12:17.780Z,7.84
2022-11-11T06:13:17.762Z,7.82
2022-11-11T06:14:17.757Z,7.81
2022-11-11T06:15:17.754Z,7.79
2022-11-11T06:16:17.729Z,7.77
2022-11-11T06:17:17.716Z,7.72
2022-11-11T06:18:17.728Z,7.72
2022-11-11T06:19:17.692Z,7.71
2022-11-11T06:20:17.668Z,7.69
2022-11-11T06:21:17.669Z,7.66
2022-11-11T06:22:17.669Z,7.66
2022-11-11T06:23:17.643Z,7.66
2022-11-11T06:24:17.619Z,7.62
2022-11-11T06:25:17.631Z,7.62
2022-11-11T06:26:17.609Z,7.60
2022-11-11T06:27:17.600Z,7.60
2022-11-11T06:28:17.609Z,7.59
2022-11-11T06:29:17.567Z,7.58
2022-11-11T06:30:47.665Z,7.56
2022-11-11T06:31:18.551Z,7.55
2022-11-11T06:32:17.554Z,7.53
2022-11-11T06:33:17.547Z,7.53
2022-11-11T06:34:17.518Z,7.50
2022-11-11T06:35:17.511Z,7.52
2022-11-11T06:36:17.506Z,7.52
2022-11-11T06:37:17.505Z,7.52
2022-11-11T06:38:17.494Z,7.50
2022-11-11T06:39:17.476Z,7.50
2022-11-11T06:40:21.537Z,7.49
2022-11-11T06:41:17.440Z,7.49
2022-11-11T06:42:17.443Z,7.49
2022-11-11T06:43:17.413Z,7.49
2022-11-11T06:44:17.417Z,7.50
2022-11-11T06:45:17.390Z,7.50
2022-11-11T06:46:18.527Z,7.50
2022-11-11T06:47:17.395Z,7.52
2022-11-11T06:48:17.358Z,7.52
2022-11-11T06:49:17.357Z,7.52
2022-11-11T06:50:17.338Z,7.52
2022-11-11T06:51:17.329Z,7.52
2022-11-11T06:52:17.333Z,7.52
2022-11-11T06:53:17.325Z,7.55
2022-11-11T06:54:17.286Z,7.55
2022-11-11T06:55:17.282Z,7.56
2022-11-11T06:56:17.291Z,7.58
2022-11-11T06:57:17.301Z,7.59
2022-11-11T06:58:17.273Z,7.60
2022-11-11T06:59:17.236Z,7.59
2022-11-11T07:00:17.227Z,7.59
2022-11-11T07:01:17.366Z,7.60
2022-11-11T07:02:17.210Z,7.60
2022-11-11T07:03:20.279Z,7.63
2022-11-11T07:04:18.218Z,7.62
2022-11-11T07:05:17.164Z,7.63
2022-11-11T07:06:17.163Z,7.63
2022-11-11T07:07:17.284Z,7.69
2022-11-11T07:08:17.148Z,7.67
2022-11-11T07:09:17.135Z,7.67
2022-11-11T07:10:17.126Z,7.67
2022-11-11T07:11:19.260Z,7.69
2022-11-11T07:12:17.134Z,7.69
2022-11-11T07:13:17.081Z,7.69
2022-11-11T07:14:17.104Z,7.71
2022-11-11T07:15:17.051Z,7.71
2022-11-11T07:16:17.050Z,7.71
2022-11-11T07:17:17.039Z,7.72
2022-11-11T07:18:17.028Z,7.71
2022-11-11T07:19:18.146Z,7.74
2022-11-11T07:20:17.007Z,7.75
2022-11-11T07:21:16.995Z,7.75
2022-11-11T07:22:16.994Z,7.77
2022-11-11T07:23:16.966Z,7.78
2022-11-11T07:24:16.958Z,7.78
2022-11-11T07:25:16.945Z,7.78
2022-11-11T07:26:16.941Z,7.78
2022-11-11T07:27:16.952Z,7.77
2022-11-11T07:28:16.915Z,7.75
2022-11-11T07:29:16.896Z,7.74
2022-11-11T07:30:16.893Z,7.74
2022-11-11T07:31:16.888Z,7.72
2022-11-11T07:32:16.889Z,7.74
2022-11-11T07:33:21.593Z,7.72
2022-11-11T07:34:17.850Z,7.75
2022-11-11T07:35:16.877Z,7.77
2022-11-11T07:36:16.831Z,7.78
2022-11-11T07:37:16.863Z,7.81
2022-11-11T07:38:16.811Z,7.84
2022-11-11T07:39:17.730Z,7.89
2022-11-11T07:40:16.815Z,7.92
2022-11-11T07:41:16.822Z,7.93
2022-11-11T07:42:31.129Z,7.93
2022-11-11T07:43:17.766Z,7.99
2022-11-11T07:44:16.733Z,8.00
2022-11-11T07:45:16.727Z,8.02
2022-11-11T07:46:16.716Z,8.02
2022-11-11T07:47:16.699Z,8.04
2022-11-11T07:48:16.703Z,8.08
2022-11-11T07:49:16.685Z,8.12
2022-11-11T07:50:16.716Z,8.11
2022-11-11T07:51:16.658Z,8.14
2022-11-11T07:52:16.649Z,8.17
2022-11-11T07:53:16.658Z,8.18
2022-11-11T07:54:16.625Z,8.20
2022-11-11T07:55:16.624Z,8.21
2022-11-11T07:56:16.619Z,8.25
2022-11-11T07:57:16.646Z,8.26
2022-11-11T07:58:16.591Z,8.29
2022-11-11T07:59:16.567Z,8.30
2022-11-11T08:00:16.558Z,8.33
2022-11-11T08:01:16.629Z,8.35
2022-11-11T08:02:16.554Z,8.37
2022-11-11T08:03:16.534Z,8.40
2022-11-11T08:04:16.531Z,8.42
2022-11-11T08:05:16.498Z,8.44
2022-11-11T08:06:16.489Z,8.45
2022-11-11T08:07:21.488Z,8.47
2022-11-11T08:08:17.468Z,8.51
2022-11-11T08:09:16.503Z,8.54
2022-11-11T08:10:16.462Z,8.55
2022-11-11T08:11:16.440Z,8.60
2022-11-11T08:12:21.839Z,8.62
2022-11-11T08:13:17.417Z,8.65
2022-11-11T08:14:16.421Z,8.68
2022-11-11T08:15:16.406Z,8.69
2022-11-11T08:16:16.388Z,8.73
2022-11-11T08:17:16.370Z,8.75
2022-11-11T08:18:16.375Z,8.76
2022-11-11T08:19:16.343Z,8.78
2022-11-11T08:20:16.337Z,8.81
2022-11-11T08:21:16.329Z,8.84
2022-11-11T08:22:16.304Z,8.88
2022-11-11T08:25:17.270Z,8.97
2022-11-11T08:26:16.257Z,8.97
2022-11-11T08:27:16.293Z,9.01
2022-11-11T08:28:16.257Z,9.01
2022-11-11T08:29:16.249Z,9.05
2022-11-11T08:30:16.225Z,9.05
2022-11-11T08:31:16.225Z,9.09
2022-11-11T08:32:17.151Z,9.12
2022-11-11T08:33:32.850Z,9.13
2022-11-11T08:34:17.182Z,9.13
2022-11-11T08:35:17.126Z,9.15
2022-11-11T08:36:20.473Z,9.15
2022-11-11T08:37:16.138Z,9.20
2022-11-11T08:38:16.137Z,9.20
2022-11-11T08:39:16.127Z,9.21
2022-11-11T08:40:16.112Z,9.24
2022-11-11T08:41:16.101Z,9.27
2022-11-11T08:42:17.036Z,9.28
2022-11-11T08:43:16.074Z,9.30
2022-11-11T08:44:16.059Z,9.32
2022-11-11T08:45:17.021Z,9.34
2022-11-11T08:46:16.065Z,9.34
2022-11-11T08:47:16.051Z,9.38
2022-11-11T08:48:16.027Z,9.42
2022-11-11T08:49:16.026Z,9.42
2022-11-11T08:50:15.989Z,9.43
2022-11-11T08:51:16.002Z,9.43
2022-11-11T08:52:15.971Z,9.46
2022-11-11T08:53:15.981Z,9.48
2022-11-11T08:54:15.948Z,9.49
2022-11-11T08:55:15.950Z,9.56
2022-11-11T08:56:15.968Z,9.58
2022-11-11T08:57:15.915Z,9.63
2022-11-11T08:58:19.775Z,9.63
2022-11-11T08:59:15.882Z,9.66
2022-11-11T09:00:15.893Z,9.67
2022-11-11T09:01:15.942Z,9.71
2022-11-11T09:02:15.853Z,9.73
2022-11-11T09:03:15.874Z,9.73
2022-11-11T09:04:43.226Z,9.78
2022-11-11T09:05:16.839Z,9.79
2022-11-11T09:06:15.880Z,9.81
2022-11-11T09:07:15.897Z,9.83
2022-11-11T09:08:15.806Z,9.85
2022-11-11T09:09:15.838Z,9.88
2022-11-11T09:10:15.798Z,9.89
2022-11-11T09:11:15.745Z,9.94
2022-11-11T09:12:15.757Z,9.96
2022-11-11T09:13:15.757Z,9.99
2022-11-11T09:14:15.741Z,10.00
2022-11-11T09:15:15.722Z,10.04
2022-11-11T09:16:15.699Z,10.07
2022-11-11T09:17:15.724Z,10.10
2022-11-11T09:18:15.666Z,10.09
2022-11-11T09:19:15.680Z,10.12
2022-11-11T09:20:17.739Z,10.14
2022-11-11T09:21:16.651Z,10.15
2022-11-11T09:22:15.642Z,10.12
2022-11-11T09:23:15.623Z,10.12
2022-11-11T09:24:15.604Z,10.14
2022-11-11T09:25:15.603Z,10.07
2022-11-11T09:26:15.601Z,10.09
2022-11-11T09:27:15.608Z,10.12
2022-11-11T09:28:15.569Z,10.15
2022-11-11T09:29:15.548Z,10.19
2022-11-11T09:30:15.543Z,10.21
2022-11-11T09:31:43.280Z,10.21
2022-11-11T09:32:16.514Z,10.22
2022-11-11T09:33:15.518Z,10.24
2022-11-11T09:34:15.484Z,10.25
2022-11-11T09:35:15.565Z,10.26
2022-11-11T09:36:15.473Z,10.28
2022-11-11T09:37:15.464Z,10.32
2022-11-11T09:38:15.464Z,10.32
2022-11-11T09:39:15.445Z,10.32
2022-11-11T09:40:15.424Z,10.28
2022-11-11T09:41:15.413Z,10.28
2022-11-11T09:42:15.407Z,10.32
2022-11-11T09:43:15.406Z,10.32
2022-11-11T09:44:15.398Z,10.36
2022-11-11T09:45:15.432Z,10.33
2022-11-11T09:46:15.358Z,10.36
2022-11-11T09:47:15.368Z,10.40
2022-11-11T09:48:15.329Z,10.46
2022-11-11T09:49:15.339Z,10.52
2022-11-11T09:50:15.334Z,10.55
2022-11-11T09:51:15.310Z,10.59
2022-11-11T09:52:15.283Z,10.63
2022-11-11T09:53:15.270Z,10.65
2022-11-11T09:54:20.286Z,10.70
2022-11-11T09:55:16.278Z,10.74
2022-11-11T09:56:30.268Z,10.77
2022-11-11T09:57:16.231Z,10.80
2022-11-11T09:58:15.245Z,10.81
2022-11-11T09:59:15.338Z,10.86
2022-11-11T10:00:19.033Z,10.89
2022-11-11T10:01:16.297Z,10.92
2022-11-11T10:02:16.042Z,10.95
2022-11-11T10:03:15.196Z,10.95
2022-11-11T10:04:15.152Z,10.98
2022-11-11T10:05:15.153Z,10.99
2022-11-11T10:06:18.399Z,11.02
2022-11-11T10:07:16.130Z,11.06
2022-11-11T10:08:15.105Z,11.06
2022-11-11T10:09:15.089Z,11.06
2022-11-11T10:10:15.084Z,11.03
2022-11-11T10:11:15.086Z,11.03
2022-11-11T10:12:15.055Z,11.03
2022-11-11T10:13:15.062Z,11.02
2022-11-11T10:14:15.047Z,11.03
2022-11-11T10:15:15.049Z,11.03
2022-11-11T10:16:15.033Z,11.07
2022-11-11T10:17:15.026Z,11.07
2022-11-11T10:18:17.581Z,11.11
2022-11-11T10:19:14.999Z,11.13
2022-11-11T10:20:14.995Z,11.11
2022-11-11T10:21:14.978Z,11.10
2022-11-11T10:22:14.943Z,11.10
2022-11-11T10:23:14.960Z,11.13
2022-11-11T10:24:14.926Z,11.14
2022-11-11T10:25:14.917Z,11.13
2022-11-11T10:26:14.903Z,11.16
2022-11-11T10:27:14.893Z,11.17
2022-11-11T10:28:14.893Z,11.20
2022-11-11T10:29:14.880Z,11.21
2022-11-11T10:30:14.871Z,11.28
2022-11-11T10:31:14.854Z,11.25
2022-11-11T10:32:14.962Z,11.27
2022-11-11T10:33:14.855Z,11.28
2022-11-11T10:34:14.822Z,11.29
2022-11-11T10:35:14.806Z,11.29
2022-11-11T10:36:14.790Z,11.31
2022-11-11T10:37:14.785Z,11.34
2022-11-11T10:38:14.774Z,11.32
2022-11-11T10:39:14.814Z,11.36
2022-11-11T10:40:14.746Z,11.38
2022-11-11T10:41:14.740Z,11.36
2022-11-11T10:42:14.742Z,11.35
2022-11-11T10:43:14.732Z,11.39
2022-11-11T10:44:14.719Z,11.41
2022-11-11T10:45:14.686Z,11.44
2022-11-11T10:46:14.674Z,11.47
2022-11-11T10:47:14.686Z,11.49
2022-11-11T10:48:14.645Z,11.53
2022-11-11T10:49:14.715Z,11.56
2022-11-11T10:50:14.626Z,11.61
2022-11-11T10:51:14.626Z,11.61
2022-11-11T10:52:14.635Z,11.62
2022-11-11T10:53:14.588Z,11.62
2022-11-11T10:54:14.589Z,11.65
2022-11-11T10:55:14.568Z,11.65
2022-11-11T10:56:14.569Z,11.68
2022-11-11T10:57:14.539Z,11.71
2022-11-11T10:58:14.541Z,11.72
2022-11-11T10:59:14.536Z,11.77
2022-11-11T11:00:14.518Z,11.78
2022-11-11T11:01:14.550Z,11.80
2022-11-11T11:02:14.492Z,11.83
2022-11-11T11:03:14.496Z,11.86
2022-11-11T11:04:14.480Z,11.90
2022-11-11T11:05:14.464Z,11.93
2022-11-11T11:06:14.466Z,11.96
2022-11-11T11:07:14.531Z,11.94
2022-11-11T11:08:14.430Z,11.97
2022-11-11T11:09:14.413Z,11.99
2022-11-11T11:10:14.417Z,12.01
2022-11-11T11:11:14.412Z,12.02
2022-11-11T11:12:14.382Z,12.04
2022-11-11T11:13:14.366Z,12.05
2022-11-11T11:14:14.360Z,12.05
2022-11-11T11:15:14.368Z,12.06
2022-11-11T11:16:14.338Z,12.08
2022-11-11T11:17:14.339Z,12.09
2022-11-11T11:18:14.329Z,12.12
2022-11-11T11:19:14.300Z,12.13
2022-11-11T11:20:14.285Z,12.09
2022-11-11T11:21:14.281Z,12.11
2022-11-11T11:22:14.278Z,12.09
2022-11-11T11:23:14.264Z,12.11
2022-11-11T11:24:14.254Z,12.13
2022-11-11T11:25:14.242Z,12.13
2022-11-11T11:26:14.218Z,12.16
2022-11-11T11:27:14.231Z,12.19
2022-11-11T11:28:14.273Z,12.20
2022-11-11T11:29:14.182Z,12.21
2022-11-11T11:30:17.082Z,12.21
2022-11-11T11:31:14.160Z,12.26
2022-11-11T11:32:14.180Z,12.29
2022-11-11T11:33:15.097Z,12.29
2022-11-11T11:34:14.132Z,12.30
2022-11-11T11:35:14.133Z,12.31
2022-11-11T11:36:14.113Z,12.33
2022-11-11T11:37:14.127Z,12.31
2022-11-11T11:38:14.082Z,12.33
2022-11-11T11:39:14.073Z,12.38
2022-11-11T11:40:14.066Z,12.38
2022-11-11T11:41:14.060Z,12.45
2022-11-11T11:42:14.055Z,12.45
2022-11-11T11:43:14.031Z,12.48
2022-11-11T11:44:14.117Z,12.46
2022-11-11T11:45:14.086Z,12.48
2022-11-11T11:46:14.004Z,12.48
2022-11-11T11:47:14.011Z,12.49
2022-11-11T11:48:31.066Z,12.51
2022-11-11T11:49:14.964Z,12.54
2022-11-11T11:50:13.986Z,12.56
2022-11-11T11:51:13.942Z,12.59
2022-11-11T11:52:13.933Z,12.63
2022-11-11T11:53:14.884Z,12.66
2022-11-11T11:54:13.939Z,12.67
2022-11-11T11:55:13.888Z,12.70
2022-11-11T11:56:13.889Z,12.71
2022-11-11T11:57:13.880Z,12.77
2022-11-11T11:58:14.824Z,12.77
2022-11-11T11:59:13.857Z,12.79
2022-11-11T12:00:13.834Z,12.78
2022-11-11T12:01:13.840Z,12.78
2022-11-11T12:02:13.872Z,12.81
2022-11-11T12:03:13.817Z,12.85
2022-11-11T12:04:13.789Z,12.89
2022-11-11T12:05:13.790Z,12.87
2022-11-11T12:06:13.774Z,12.84
2022-11-11T12:07:13.823Z,12.84
2022-11-11T12:08:13.763Z,12.85
2022-11-11T12:09:13.758Z,12.87
2022-11-11T12:10:13.738Z,12.85
2022-11-11T12:11:13.715Z,12.87
2022-11-11T12:12:13.724Z,12.89
2022-11-11T12:13:13.713Z,12.92
2022-11-11T12:14:13.685Z,12.95
2022-11-11T12:15:13.674Z,12.97
2022-11-11T12:16:13.664Z,12.99
2022-11-11T12:17:13.664Z,13.00
2022-11-11T12:18:13.651Z,13.03
2022-11-11T12:19:13.636Z,13.03
2022-11-11T12:20:13.617Z,13.07
2022-11-11T12:21:13.620Z,13.11
2022-11-11T12:22:13.600Z,13.12
2022-11-11T12:23:13.599Z,13.12
2022-11-11T12:24:13.601Z,13.15
2022-11-11T12:25:13.586Z,13.17
2022-11-11T12:26:13.568Z,13.21
2022-11-11T12:27:13.573Z,13.24
2022-11-11T12:28:13.545Z,13.22
2022-11-11T12:29:13.517Z,13.27
2022-11-11T12:30:13.543Z,13.30
2022-11-11T12:31:13.491Z,13.32
2022-11-11T12:32:13.493Z,13.33
2022-11-11T12:33:13.481Z,13.36
2022-11-11T12:34:13.472Z,13.40
2022-11-11T12:35:13.463Z,13.40
2022-11-11T12:36:13.444Z,13.41
2022-11-11T12:37:13.433Z,13.43
2022-11-11T12:38:13.412Z,13.44
2022-11-11T12:39:13.395Z,13.46
2022-11-11T12:40:13.518Z,13.51
2022-11-11T12:41:13.386Z,13.51
2022-11-11T12:42:13.501Z,13.52
2022-11-11T12:43:13.353Z,13.56
2022-11-11T12:44:13.362Z,13.58
2022-11-11T12:45:13.370Z,13.59
2022-11-11T12:46:13.323Z,13.58
2022-11-11T12:47:13.335Z,13.56
2022-11-11T12:48:13.313Z,13.58
2022-11-11T12:49:13.287Z,13.56
2022-11-11T12:50:13.372Z,13.59
2022-11-11T12:51:13.268Z,13.62
2022-11-11T12:52:13.287Z,13.62
2022-11-11T12:53:13.271Z,13.63
2022-11-11T12:54:13.227Z,13.63
2022-11-11T12:55:13.226Z,13.69
2022-11-11T12:56:13.214Z,13.69
2022-11-11T12:57:13.219Z,13.69
2022-11-11T12:58:13.195Z,13.71
2022-11-11T12:59:13.191Z,13.73
2022-11-11T13:00:13.252Z,13.71
2022-11-11T13:01:13.198Z,13.70
2022-11-11T13:02:13.161Z,13.71
2022-11-11T13:03:13.150Z,13.70
2022-11-11T13:04:13.134Z,13.70
2022-11-11T13:05:13.149Z,13.70
2022-11-11T13:06:13.098Z,13.73
2022-11-11T13:07:13.194Z,13.74
2022-11-11T13:08:13.095Z,13.74
2022-11-11T13:09:13.072Z,13.74
2022-11-11T13:10:13.070Z,13.76
2022-11-11T13:11:13.070Z,13.77
2022-11-11T13:12:18.119Z,13.79
2022-11-11T13:13:14.027Z,13.81
2022-11-11T13:14:13.032Z,13.84